sensor_id;sensor_type;location;lat;lon;timestamp;P1;durP1;ratioP1;P2;durP2;ratioP2
46282;SDS011;32017;43.700;11.820;2022-11-20T00:02:15;3.80;;;3.70;;
46282;SDS011;32017;43.700;11.820;2022-11-20T00:04:35;4.32;;;4.22;;
46282;SDS011;32017;43.700;11.820;2022-11-20T00:06:55;4.30;;;4.20;;
46282;SDS011;32017;43.700;11.820;2022-11-20T00:09:15;4.68;;;4.32;;
46282;SDS011;32017;43.700;11.820;2022-11-20T00:11:35;7.80;;;7.53;;
46282;SDS011;32017;43.700;11.820;2022-11-20T00:13:56;8.15;;;7.82;;
46282;SDS011;32017;43.700;11.820;2022-11-20T00:16:18;2.92;;;2.92;;
46282;SDS011;32017;43.700;11.820;2022-11-20T00:18:39;4.97;;;4.88;;
46282;SDS011;32017;43.700;11.820;2022-11-20T00:21:12;7.25;;;6.85;;
46282;SDS011;32017;43.700;11.820;2022-11-20T00:23:34;8.27;;;8.07;;
46282;SDS011;32017;43.700;11.820;2022-11-20T00:25:54;7.00;;;6.80;;
46282;SDS011;32017;43.700;11.820;2022-11-20T00:28:15;9.13;;;8.65;;
46282;SDS011;32017;43.700;11.820;2022-11-20T00:30:34;10.95;;;10.07;;
46282;SDS011;32017;43.700;11.820;2022-11-20T00:32:56;6.25;;;6.05;;
46282;SDS011;32017;43.700;11.820;2022-11-20T00:37:37;5.07;;;4.78;;
46282;SDS011;32017;43.700;11.820;2022-11-20T00:39:57;4.82;;;4.72;;
46282;SDS011;32017;43.700;11.820;2022-11-20T00:42:17;4.57;;;4.38;;
46282;SDS011;32017;43.700;11.820;2022-11-20T00:44:36;4.82;;;4.63;;
46282;SDS011;32017;43.700;11.820;2022-11-20T00:46:56;4.28;;;4.07;;
46282;SDS011;32017;43.700;11.820;2022-11-20T00:49:16;5.70;;;4.95;;
46282;SDS011;32017;43.700;11.820;2022-11-20T00:51:35;4.47;;;4.32;;
46282;SDS011;32017;43.700;11.820;2022-11-20T00:53:55;3.97;;;3.88;;
46282;SDS011;32017;43.700;11.820;2022-11-20T00:56:17;4.28;;;4.18;;
46282;SDS011;32017;43.700;11.820;2022-11-20T00:58:39;4.00;;;3.90;;
46282;SDS011;32017;43.700;11.820;2022-11-20T01:01:07;4.38;;;4.28;;
46282;SDS011;32017;43.700;11.820;2022-11-20T01:03:30;3.80;;;3.50;;
46282;SDS011;32017;43.700;11.820;2022-11-20T01:05:53;3.60;;;3.55;;
46282;SDS011;32017;43.700;11.820;2022-11-20T01:08:13;4.43;;;4.30;;
46282;SDS011;32017;43.700;11.820;2022-11-20T01:10:33;4.13;;;3.97;;
46282;SDS011;32017;43.700;11.820;2022-11-20T01:12:52;3.22;;;3.22;;
46282;SDS011;32017;43.700;11.820;2022-11-20T01:15:33;3.60;;;3.60;;
46282;SDS011;32017;43.700;11.820;2022-11-20T01:17:53;4.32;;;4.03;;
46282;SDS011;32017;43.700;11.820;2022-11-20T01:20:13;3.80;;;3.80;;
46282;SDS011;32017;43.700;11.820;2022-11-20T01:22:33;3.00;;;2.85;;
46282;SDS011;32017;43.700;11.820;2022-11-20T01:24:53;3.50;;;3.20;;
46282;SDS011;32017;43.700;11.820;2022-11-20T01:27:12;2.97;;;2.97;;
46282;SDS011;32017;43.700;11.820;2022-11-20T01:29:32;3.22;;;3.10;;
46282;SDS011;32017;43.700;11.820;2022-11-20T01:31:52;3.22;;;3.22;;
46282;SDS011;32017;43.700;11.820;2022-11-20T01:34:13;3.58;;;3.47;;
46282;SDS011;32017;43.700;11.820;2022-11-20T01:36:35;4.07;;;3.97;;
46282;SDS011;32017;43.700;11.820;2022-11-20T01:38:57;3.33;;;3.33;;
46282;SDS011;32017;43.700;11.820;2022-11-20T01:41:20;4.70;;;4.60;;
46282;SDS011;32017;43.700;11.820;2022-11-20T01:44:00;4.35;;;4.25;;
46282;SDS011;32017;43.700;11.820;2022-11-20T01:46:21;3.10;;;3.10;;
46282;SDS011;32017;43.700;11.820;2022-11-20T01:48:53;4.28;;;4.18;;
46282;SDS011;32017;43.700;11.820;2022-11-20T01:51:29;7.00;;;6.47;;
46282;SDS011;32017;43.700;11.820;2022-11-20T01:54:00;4.88;;;4.45;;
46282;SDS011;32017;43.700;11.820;2022-11-20T01:58:44;3.58;;;3.47;;
46282;SDS011;32017;43.700;11.820;2022-11-20T02:01:09;4.05;;;3.95;;
46282;SDS011;32017;43.700;11.820;2022-11-20T02:03:29;4.22;;;4.13;;
46282;SDS011;32017;43.700;11.820;2022-11-20T02:06:01;4.72;;;4.63;;
46282;SDS011;32017;43.700;11.820;2022-11-20T02:08:26;3.97;;;3.88;;
46282;SDS011;32017;43.700;11.820;2022-11-20T02:10:47;4.10;;;4.00;;
46282;SDS011;32017;43.700;11.820;2022-11-20T02:13:07;3.00;;;2.80;;
46282;SDS011;32017;43.700;11.820;2022-11-20T02:15:45;4.00;;;3.90;;
46282;SDS011;32017;43.700;11.820;2022-11-20T02:18:06;3.60;;;3.60;;
46282;SDS011;32017;43.700;11.820;2022-11-20T02:20:27;4.05;;;3.95;;
46282;SDS011;32017;43.700;11.820;2022-11-20T02:22:48;4.85;;;4.68;;
46282;SDS011;32017;43.700;11.820;2022-11-20T02:25:15;5.10;;;5.00;;
46282;SDS011;32017;43.700;11.820;2022-11-20T02:27:35;4.65;;;4.55;;
46282;SDS011;32017;43.700;11.820;2022-11-20T02:30:03;4.07;;;3.88;;
46282;SDS011;32017;43.700;11.820;2022-11-20T02:32:27;4.00;;;3.90;;
46282;SDS011;32017;43.700;11.820;2022-11-20T02:34:49;7.30;;;4.15;;
46282;SDS011;32017;43.700;11.820;2022-11-20T02:37:09;3.47;;;3.38;;
46282;SDS011;32017;43.700;11.820;2022-11-20T02:39:29;2.75;;;2.75;;
46282;SDS011;32017;43.700;11.820;2022-11-20T02:41:49;3.25;;;3.25;;
46282;SDS011;32017;43.700;11.820;2022-11-20T02:44:11;3.10;;;3.00;;
46282;SDS011;32017;43.700;11.820;2022-11-20T02:46:32;4.25;;;4.15;;
46282;SDS011;32017;43.700;11.820;2022-11-20T02:48:52;4.43;;;4.32;;
46282;SDS011;32017;43.700;11.820;2022-11-20T02:51:12;4.00;;;3.80;;
46282;SDS011;32017;43.700;11.820;2022-11-20T02:53:32;5.68;;;5.25;;
46282;SDS011;32017;43.700;11.820;2022-11-20T02:55:52;4.50;;;4.40;;
46282;SDS011;32017;43.700;11.820;2022-11-20T02:58:12;6.10;;;5.82;;
46282;SDS011;32017;43.700;11.820;2022-11-20T03:00:32;4.88;;;4.78;;
46282;SDS011;32017;43.700;11.820;2022-11-20T03:02:52;5.22;;;4.82;;
46282;SDS011;32017;43.700;11.820;2022-11-20T03:05:12;4.85;;;4.55;;
46282;SDS011;32017;43.700;11.820;2022-11-20T03:07:31;4.28;;;4.18;;
46282;SDS011;32017;43.700;11.820;2022-11-20T03:09:51;5.57;;;5.32;;
46282;SDS011;32017;43.700;11.820;2022-11-20T03:12:11;5.05;;;4.95;;
46282;SDS011;32017;43.700;11.820;2022-11-20T03:14:31;4.70;;;4.53;;
46282;SDS011;32017;43.700;11.820;2022-11-20T03:16:51;4.88;;;4.70;;
46282;SDS011;32017;43.700;11.820;2022-11-20T03:19:11;5.43;;;5.32;;
46282;SDS011;32017;43.700;11.820;2022-11-20T03:21:35;4.50;;;4.40;;
46282;SDS011;32017;43.700;11.820;2022-11-20T03:23:55;4.97;;;4.88;;
46282;SDS011;32017;43.700;11.820;2022-11-20T03:26:16;5.07;;;4.97;;
46282;SDS011;32017;43.700;11.820;2022-11-20T03:28:41;4.93;;;4.82;;
46282;SDS011;32017;43.700;11.820;2022-11-20T03:31:08;5.32;;;5.22;;
46282;SDS011;32017;43.700;11.820;2022-11-20T03:33:30;4.80;;;4.70;;
46282;SDS011;32017;43.700;11.820;2022-11-20T03:35:49;3.70;;;3.70;;
46282;SDS011;32017;43.700;11.820;2022-11-20T03:38:09;4.20;;;4.07;;
46282;SDS011;32017;43.700;11.820;2022-11-20T03:40:29;3.80;;;3.80;;
46282;SDS011;32017;43.700;11.820;2022-11-20T03:42:49;3.80;;;3.80;;
46282;SDS011;32017;43.700;11.820;2022-11-20T03:45:08;4.25;;;4.15;;
46282;SDS011;32017;43.700;11.820;2022-11-20T03:47:28;8.68;;;6.40;;
46282;SDS011;32017;43.700;11.820;2022-11-20T03:49:48;6.57;;;6.28;;
46282;SDS011;32017;43.700;11.820;2022-11-20T03:52:07;6.28;;;6.07;;
46282;SDS011;32017;43.700;11.820;2022-11-20T03:54:28;4.30;;;4.20;;
46282;SDS011;32017;43.700;11.820;2022-11-20T03:56:47;4.50;;;4.40;;
46282;SDS011;32017;43.700;11.820;2022-11-20T03:59:09;6.38;;;6.18;;
46282;SDS011;32017;43.700;11.820;2022-11-20T04:01:31;8.82;;;8.18;;
46282;SDS011;32017;43.700;11.820;2022-11-20T04:03:56;10.40;;;8.52;;
46282;SDS011;32017;43.700;11.820;2022-11-20T04:06:18;7.38;;;6.75;;
46282;SDS011;32017;43.700;11.820;2022-11-20T04:08:40;4.57;;;4.35;;
46282;SDS011;32017;43.700;11.820;2022-11-20T04:13:47;4.18;;;4.07;;
46282;SDS011;32017;43.700;11.820;2022-11-20T04:16:08;3.85;;;3.75;;
46282;SDS011;32017;43.700;11.820;2022-11-20T04:18:28;7.07;;;6.78;;
46282;SDS011;32017;43.700;11.820;2022-11-20T04:20:48;9.27;;;8.45;;
46282;SDS011;32017;43.700;11.820;2022-11-20T04:23:08;9.85;;;9.10;;
46282;SDS011;32017;43.700;11.820;2022-11-20T04:25:28;13.73;;;12.35;;
46282;SDS011;32017;43.700;11.820;2022-11-20T04:27:48;11.55;;;10.55;;
46282;SDS011;32017;43.700;11.820;2022-11-20T04:30:08;13.38;;;12.32;;
46282;SDS011;32017;43.700;11.820;2022-11-20T04:32:27;13.93;;;12.63;;
46282;SDS011;32017;43.700;11.820;2022-11-20T04:34:47;8.57;;;8.18;;
46282;SDS011;32017;43.700;11.820;2022-11-20T04:37:07;6.35;;;6.15;;
46282;SDS011;32017;43.700;11.820;2022-11-20T04:39:27;6.05;;;5.75;;
46282;SDS011;32017;43.700;11.820;2022-11-20T04:41:46;5.72;;;5.38;;
46282;SDS011;32017;43.700;11.820;2022-11-20T04:44:06;5.53;;;5.35;;
46282;SDS011;32017;43.700;11.820;2022-11-20T04:46:26;8.50;;;8.25;;
46282;SDS011;32017;43.700;11.820;2022-11-20T04:48:46;4.50;;;4.40;;
46282;SDS011;32017;43.700;11.820;2022-11-20T04:51:07;4.80;;;4.70;;
46282;SDS011;32017;43.700;11.820;2022-11-20T04:53:26;4.88;;;4.38;;
46282;SDS011;32017;43.700;11.820;2022-11-20T04:55:46;4.85;;;4.72;;
46282;SDS011;32017;43.700;11.820;2022-11-20T04:58:06;3.95;;;3.92;;
46282;SDS011;32017;43.700;11.820;2022-11-20T05:00:27;3.80;;;3.70;;
46282;SDS011;32017;43.700;11.820;2022-11-20T05:02:47;4.57;;;4.47;;
46282;SDS011;32017;43.700;11.820;2022-11-20T05:05:07;3.42;;;3.30;;
46282;SDS011;32017;43.700;11.820;2022-11-20T05:07:27;5.75;;;4.85;;
46282;SDS011;32017;43.700;11.820;2022-11-20T05:09:47;3.42;;;3.42;;
46282;SDS011;32017;43.700;11.820;2022-11-20T05:12:08;4.20;;;4.00;;
46282;SDS011;32017;43.700;11.820;2022-11-20T05:14:28;3.33;;;3.33;;
46282;SDS011;32017;43.700;11.820;2022-11-20T05:16:48;4.68;;;4.47;;
46282;SDS011;32017;43.700;11.820;2022-11-20T05:19:09;5.03;;;4.93;;
46282;SDS011;32017;43.700;11.820;2022-11-20T05:21:30;5.15;;;5.05;;
46282;SDS011;32017;43.700;11.820;2022-11-20T05:23:50;6.53;;;4.23;;
46282;SDS011;32017;43.700;11.820;2022-11-20T05:26:15;3.05;;;2.95;;
46282;SDS011;32017;43.700;11.820;2022-11-20T05:28:37;3.10;;;3.10;;
46282;SDS011;32017;43.700;11.820;2022-11-20T05:31:03;4.25;;;4.15;;
46282;SDS011;32017;43.700;11.820;2022-11-20T05:33:25;3.58;;;3.28;;
46282;SDS011;32017;43.700;11.820;2022-11-20T05:35:44;3.83;;;3.55;;
46282;SDS011;32017;43.700;11.820;2022-11-20T05:38:05;3.25;;;3.15;;
46282;SDS011;32017;43.700;11.820;2022-11-20T05:40:24;3.60;;;3.45;;
46282;SDS011;32017;43.700;11.820;2022-11-20T05:42:44;3.10;;;3.00;;
46282;SDS011;32017;43.700;11.820;2022-11-20T05:45:04;2.85;;;2.85;;
46282;SDS011;32017;43.700;11.820;2022-11-20T05:47:25;2.70;;;2.70;;
46282;SDS011;32017;43.700;11.820;2022-11-20T05:49:45;2.88;;;2.88;;
46282;SDS011;32017;43.700;11.820;2022-11-20T05:52:05;3.45;;;3.45;;
46282;SDS011;32017;43.700;11.820;2022-11-20T05:54:24;4.22;;;4.13;;
46282;SDS011;32017;43.700;11.820;2022-11-20T05:56:44;4.28;;;4.03;;
46282;SDS011;32017;43.700;11.820;2022-11-20T05:59:04;3.55;;;3.47;;
46282;SDS011;32017;43.700;11.820;2022-11-20T06:01:24;2.60;;;2.60;;
46282;SDS011;32017;43.700;11.820;2022-11-20T06:03:45;3.85;;;3.78;;
46282;SDS011;32017;43.700;11.820;2022-11-20T06:06:06;3.47;;;3.47;;
46282;SDS011;32017;43.700;11.820;2022-11-20T06:08:26;3.42;;;3.42;;
46282;SDS011;32017;43.700;11.820;2022-11-20T06:10:47;3.20;;;3.00;;
46282;SDS011;32017;43.700;11.820;2022-11-20T06:13:07;3.85;;;3.75;;
46282;SDS011;32017;43.700;11.820;2022-11-20T06:15:27;3.22;;;3.13;;
46282;SDS011;32017;43.700;11.820;2022-11-20T06:17:46;3.05;;;2.80;;
46282;SDS011;32017;43.700;11.820;2022-11-20T06:20:10;2.63;;;2.63;;
46282;SDS011;32017;43.700;11.820;2022-11-20T06:22:31;3.47;;;3.03;;
46282;SDS011;32017;43.700;11.820;2022-11-20T06:24:52;3.90;;;3.90;;
46282;SDS011;32017;43.700;11.820;2022-11-20T06:27:11;3.75;;;3.75;;
46282;SDS011;32017;43.700;11.820;2022-11-20T06:29:31;4.30;;;4.15;;
46282;SDS011;32017;43.700;11.820;2022-11-20T06:31:53;3.45;;;3.35;;
46282;SDS011;32017;43.700;11.820;2022-11-20T06:34:13;3.03;;;2.92;;
46282;SDS011;32017;43.700;11.820;2022-11-20T06:36:33;2.85;;;2.85;;
46282;SDS011;32017;43.700;11.820;2022-11-20T06:38:53;4.07;;;3.97;;
46282;SDS011;32017;43.700;11.820;2022-11-20T06:41:14;4.53;;;4.43;;
46282;SDS011;32017;43.700;11.820;2022-11-20T06:43:38;3.42;;;3.42;;
46282;SDS011;32017;43.700;11.820;2022-11-20T06:45:59;4.53;;;4.50;;
46282;SDS011;32017;43.700;11.820;2022-11-20T06:48:18;4.60;;;4.32;;
46282;SDS011;32017;43.700;11.820;2022-11-20T06:50:38;4.20;;;4.00;;
46282;SDS011;32017;43.700;11.820;2022-11-20T06:53:00;3.10;;;3.10;;
46282;SDS011;32017;43.700;11.820;2022-11-20T06:55:21;3.00;;;2.97;;
46282;SDS011;32017;43.700;11.820;2022-11-20T06:57:41;8.10;;;7.78;;
46282;SDS011;32017;43.700;11.820;2022-11-20T07:00:01;5.07;;;4.15;;
46282;SDS011;32017;43.700;11.820;2022-11-20T07:02:20;4.32;;;4.22;;
46282;SDS011;32017;43.700;11.820;2022-11-20T07:04:40;5.40;;;5.30;;
46282;SDS011;32017;43.700;11.820;2022-11-20T07:07:00;7.85;;;7.25;;
46282;SDS011;32017;43.700;11.820;2022-11-20T07:09:20;5.60;;;5.45;;
46282;SDS011;32017;43.700;11.820;2022-11-20T07:11:41;13.57;;;9.18;;
46282;SDS011;32017;43.700;11.820;2022-11-20T07:14:01;8.65;;;7.85;;
46282;SDS011;32017;43.700;11.820;2022-11-20T07:16:20;9.85;;;8.05;;
46282;SDS011;32017;43.700;11.820;2022-11-20T07:18:40;7.32;;;6.60;;
46282;SDS011;32017;43.700;11.820;2022-11-20T07:21:07;7.30;;;6.57;;
46282;SDS011;32017;43.700;11.820;2022-11-20T07:23:27;6.00;;;5.43;;
46282;SDS011;32017;43.700;11.820;2022-11-20T07:25:48;6.60;;;5.78;;
46282;SDS011;32017;43.700;11.820;2022-11-20T07:28:07;4.43;;;4.28;;
46282;SDS011;32017;43.700;11.820;2022-11-20T07:30:30;25.88;;;13.30;;
46282;SDS011;32017;43.700;11.820;2022-11-20T07:32:53;30.33;;;22.15;;
46282;SDS011;32017;43.700;11.820;2022-11-20T07:35:14;15.82;;;14.43;;
46282;SDS011;32017;43.700;11.820;2022-11-20T07:37:34;7.82;;;7.32;;
46282;SDS011;32017;43.700;11.820;2022-11-20T07:39:54;4.50;;;4.25;;
46282;SDS011;32017;43.700;11.820;2022-11-20T07:42:13;2.67;;;2.67;;
46282;SDS011;32017;43.700;11.820;2022-11-20T07:44:33;3.80;;;3.10;;
46282;SDS011;32017;43.700;11.820;2022-11-20T07:46:53;2.20;;;2.20;;
46282;SDS011;32017;43.700;11.820;2022-11-20T07:49:13;2.42;;;2.22;;
46282;SDS011;32017;43.700;11.820;2022-11-20T07:51:33;2.65;;;2.58;;
46282;SDS011;32017;43.700;11.820;2022-11-20T07:53:53;3.97;;;3.42;;
46282;SDS011;32017;43.700;11.820;2022-11-20T07:56:13;7.70;;;7.13;;
46282;SDS011;32017;43.700;11.820;2022-11-20T07:58:33;5.53;;;5.28;;
46282;SDS011;32017;43.700;11.820;2022-11-20T08:00:53;5.35;;;5.18;;
46282;SDS011;32017;43.700;11.820;2022-11-20T08:03:13;4.03;;;3.90;;
46282;SDS011;32017;43.700;11.820;2022-11-20T08:05:33;4.18;;;4.07;;
46282;SDS011;32017;43.700;11.820;2022-11-20T08:07:54;2.80;;;2.70;;
46282;SDS011;32017;43.700;11.820;2022-11-20T08:10:14;3.03;;;2.88;;
46282;SDS011;32017;43.700;11.820;2022-11-20T08:12:48;2.85;;;2.65;;
46282;SDS011;32017;43.700;11.820;2022-11-20T08:15:30;2.50;;;2.50;;
46282;SDS011;32017;43.700;11.820;2022-11-20T08:17:50;2.00;;;2.00;;
46282;SDS011;32017;43.700;11.820;2022-11-20T08:20:30;1.67;;;1.67;;
46282;SDS011;32017;43.700;11.820;2022-11-20T08:22:50;2.05;;;1.90;;
46282;SDS011;32017;43.700;11.820;2022-11-20T08:25:10;1.77;;;1.63;;
46282;SDS011;32017;43.700;11.820;2022-11-20T08:27:31;2.47;;;2.47;;
46282;SDS011;32017;43.700;11.820;2022-11-20T08:29:52;2.92;;;2.92;;
46282;SDS011;32017;43.700;11.820;2022-11-20T08:32:12;1.50;;;1.50;;
46282;SDS011;32017;43.700;11.820;2022-11-20T08:34:32;2.00;;;2.00;;
46282;SDS011;32017;43.700;11.820;2022-11-20T08:36:51;1.85;;;1.83;;
46282;SDS011;32017;43.700;11.820;2022-11-20T08:39:11;2.65;;;2.55;;
46282;SDS011;32017;43.700;11.820;2022-11-20T08:41:32;1.58;;;1.58;;
46282;SDS011;32017;43.700;11.820;2022-11-20T08:43:53;1.83;;;1.83;;
46282;SDS011;32017;43.700;11.820;2022-11-20T08:46:14;6.50;;;2.58;;
46282;SDS011;32017;43.700;11.820;2022-11-20T08:48:34;1.75;;;1.75;;
46282;SDS011;32017;43.700;11.820;2022-11-20T08:50:57;1.90;;;1.80;;
46282;SDS011;32017;43.700;11.820;2022-11-20T08:53:17;1.98;;;1.98;;
46282;SDS011;32017;43.700;11.820;2022-11-20T08:55:37;2.78;;;1.70;;
46282;SDS011;32017;43.700;11.820;2022-11-20T08:58:02;1.77;;;1.77;;
46282;SDS011;32017;43.700;11.820;2022-11-20T09:00:23;1.70;;;1.70;;
46282;SDS011;32017;43.700;11.820;2022-11-20T09:02:43;1.35;;;1.35;;
46282;SDS011;32017;43.700;11.820;2022-11-20T09:05:03;1.83;;;1.83;;
46282;SDS011;32017;43.700;11.820;2022-11-20T09:07:24;1.77;;;1.77;;
46282;SDS011;32017;43.700;11.820;2022-11-20T09:09:44;1.77;;;1.70;;
46282;SDS011;32017;43.700;11.820;2022-11-20T09:12:05;1.70;;;1.30;;
46282;SDS011;32017;43.700;11.820;2022-11-20T09:14:24;2.20;;;2.20;;
46282;SDS011;32017;43.700;11.820;2022-11-20T09:16:48;1.75;;;1.75;;
46282;SDS011;32017;43.700;11.820;2022-11-20T09:19:07;2.40;;;2.40;;
46282;SDS011;32017;43.700;11.820;2022-11-20T09:21:48;2.40;;;2.30;;
46282;SDS011;32017;43.700;11.820;2022-11-20T09:24:08;1.95;;;1.60;;
46282;SDS011;32017;43.700;11.820;2022-11-20T09:26:27;1.60;;;1.60;;
46282;SDS011;32017;43.700;11.820;2022-11-20T09:28:47;1.90;;;1.80;;
46282;SDS011;32017;43.700;11.820;2022-11-20T09:31:07;1.73;;;1.35;;
46282;SDS011;32017;43.700;11.820;2022-11-20T09:33:29;1.70;;;1.70;;
46282;SDS011;32017;43.700;11.820;2022-11-20T09:35:49;1.50;;;1.40;;
46282;SDS011;32017;43.700;11.820;2022-11-20T09:38:09;2.05;;;1.73;;
46282;SDS011;32017;43.700;11.820;2022-11-20T09:40:34;1.50;;;1.50;;
46282;SDS011;32017;43.700;11.820;2022-11-20T09:42:57;1.40;;;1.40;;
46282;SDS011;32017;43.700;11.820;2022-11-20T09:46:14;1.35;;;1.25;;
46282;SDS011;32017;43.700;11.820;2022-11-20T09:48:34;1.52;;;1.52;;
46282;SDS011;32017;43.700;11.820;2022-11-20T09:53:29;1.40;;;1.40;;
46282;SDS011;32017;43.700;11.820;2022-11-20T09:56:09;2.28;;;2.08;;
46282;SDS011;32017;43.700;11.820;2022-11-20T10:01:00;1.90;;;1.90;;
46282;SDS011;32017;43.700;11.820;2022-11-20T10:06:04;1.40;;;1.40;;
46282;SDS011;32017;43.700;11.820;2022-11-20T10:08:47;1.35;;;1.35;;
46282;SDS011;32017;43.700;11.820;2022-11-20T10:11:35;1.33;;;1.30;;
46282;SDS011;32017;43.700;11.820;2022-11-20T10:24:48;2.88;;;1.60;;
46282;SDS011;32017;43.700;11.820;2022-11-20T10:32:20;1.40;;;1.30;;
46282;SDS011;32017;43.700;11.820;2022-11-20T10:34:52;2.17;;;2.08;;
46282;SDS011;32017;43.700;11.820;2022-11-20T10:37:21;3.33;;;1.55;;
46282;SDS011;32017;43.700;11.820;2022-11-20T10:39:56;2.25;;;2.15;;
46282;SDS011;32017;43.700;11.820;2022-11-20T10:42:47;1.20;;;1.20;;
46282;SDS011;32017;43.700;11.820;2022-11-20T10:50:26;1.50;;;1.50;;
46282;SDS011;32017;43.700;11.820;2022-11-20T10:52:54;1.52;;;1.40;;
46282;SDS011;32017;43.700;11.820;2022-11-20T10:58:10;1.40;;;1.40;;
46282;SDS011;32017;43.700;11.820;2022-11-20T11:00:50;1.48;;;1.48;;
46282;SDS011;32017;43.700;11.820;2022-11-20T11:03:44;1.50;;;1.40;;
46282;SDS011;32017;43.700;11.820;2022-11-20T11:08:39;1.98;;;1.92;;
46282;SDS011;32017;43.700;11.820;2022-11-20T11:11:00;1.42;;;1.30;;
46282;SDS011;32017;43.700;11.820;2022-11-20T11:13:32;2.22;;;2.13;;
46282;SDS011;32017;43.700;11.820;2022-11-20T11:15:52;1.42;;;1.42;;
46282;SDS011;32017;43.700;11.820;2022-11-20T11:18:22;1.67;;;1.67;;
46282;SDS011;32017;43.700;11.820;2022-11-20T11:20:51;1.75;;;1.65;;
46282;SDS011;32017;43.700;11.820;2022-11-20T11:23:22;1.50;;;1.50;;
46282;SDS011;32017;43.700;11.820;2022-11-20T11:25:56;1.65;;;1.65;;
46282;SDS011;32017;43.700;11.820;2022-11-20T11:30:41;1.40;;;1.40;;
46282;SDS011;32017;43.700;11.820;2022-11-20T11:33:06;1.88;;;1.85;;
46282;SDS011;32017;43.700;11.820;2022-11-20T11:35:29;1.83;;;1.70;;
46282;SDS011;32017;43.700;11.820;2022-11-20T11:37:49;2.80;;;1.58;;
46282;SDS011;32017;43.700;11.820;2022-11-20T11:40:10;1.30;;;1.30;;
46282;SDS011;32017;43.700;11.820;2022-11-20T11:42:50;1.20;;;1.20;;
46282;SDS011;32017;43.700;11.820;2022-11-20T11:45:14;1.73;;;1.67;;
46282;SDS011;32017;43.700;11.820;2022-11-20T11:52:28;2.70;;;1.75;;
46282;SDS011;32017;43.700;11.820;2022-11-20T12:00:05;1.30;;;1.20;;
46282;SDS011;32017;43.700;11.820;2022-11-20T12:05:00;2.55;;;1.55;;
46282;SDS011;32017;43.700;11.820;2022-11-20T12:10:13;1.23;;;1.23;;
46282;SDS011;32017;43.700;11.820;2022-11-20T12:12:47;1.60;;;1.55;;
46282;SDS011;32017;43.700;11.820;2022-11-20T12:15:12;1.20;;;1.20;;
46282;SDS011;32017;43.700;11.820;2022-11-20T12:17:39;2.03;;;1.92;;
46282;SDS011;32017;43.700;11.820;2022-11-20T12:19:59;1.45;;;1.45;;
46282;SDS011;32017;43.700;11.820;2022-11-20T12:22:24;1.40;;;1.40;;
46282;SDS011;32017;43.700;11.820;2022-11-20T12:27:53;1.65;;;1.65;;
46282;SDS011;32017;43.700;11.820;2022-11-20T12:30:19;1.30;;;1.30;;
46282;SDS011;32017;43.700;11.820;2022-11-20T12:38:22;2.60;;;2.50;;
46282;SDS011;32017;43.700;11.820;2022-11-20T12:41:03;1.90;;;1.90;;
46282;SDS011;32017;43.700;11.820;2022-11-20T12:43:29;3.13;;;1.40;;
46282;SDS011;32017;43.700;11.820;2022-11-20T12:46:26;2.83;;;2.72;;
46282;SDS011;32017;43.700;11.820;2022-11-20T12:51:40;1.83;;;1.83;;
46282;SDS011;32017;43.700;11.820;2022-11-20T12:54:11;2.78;;;2.58;;
46282;SDS011;32017;43.700;11.820;2022-11-20T12:56:57;3.17;;;3.08;;
46282;SDS011;32017;43.700;11.820;2022-11-20T13:07:30;1.30;;;1.25;;
46282;SDS011;32017;43.700;11.820;2022-11-20T13:09:52;1.80;;;1.80;;
46282;SDS011;32017;43.700;11.820;2022-11-20T13:19:55;1.65;;;1.63;;
46282;SDS011;32017;43.700;11.820;2022-11-20T13:22:27;1.73;;;1.73;;
46282;SDS011;32017;43.700;11.820;2022-11-20T13:24:52;1.45;;;1.45;;
46282;SDS011;32017;43.700;11.820;2022-11-20T13:29:33;2.13;;;2.13;;
46282;SDS011;32017;43.700;11.820;2022-11-20T13:32:01;1.85;;;1.85;;
46282;SDS011;32017;43.700;11.820;2022-11-20T13:34:27;2.40;;;2.30;;
46282;SDS011;32017;43.700;11.820;2022-11-20T13:36:51;1.85;;;1.80;;
46282;SDS011;32017;43.700;11.820;2022-11-20T13:39:25;2.03;;;2.03;;
46282;SDS011;32017;43.700;11.820;2022-11-20T13:41:53;4.15;;;3.92;;
46282;SDS011;32017;43.700;11.820;2022-11-20T13:44:15;3.72;;;3.63;;
46282;SDS011;32017;43.700;11.820;2022-11-20T13:47:04;3.30;;;3.20;;
46282;SDS011;32017;43.700;11.820;2022-11-20T13:49:45;2.83;;;2.45;;
46282;SDS011;32017;43.700;11.820;2022-11-20T13:54:52;2.05;;;2.03;;
46282;SDS011;32017;43.700;11.820;2022-11-20T13:57:31;2.00;;;2.00;;
46282;SDS011;32017;43.700;11.820;2022-11-20T14:02:31;2.92;;;2.92;;
46282;SDS011;32017;43.700;11.820;2022-11-20T14:04:52;3.88;;;3.78;;
46282;SDS011;32017;43.700;11.820;2022-11-20T14:07:16;2.50;;;2.40;;
46282;SDS011;32017;43.700;11.820;2022-11-20T14:09:38;2.72;;;2.53;;
46282;SDS011;32017;43.700;11.820;2022-11-20T14:11:58;2.70;;;2.60;;
46282;SDS011;32017;43.700;11.820;2022-11-20T14:14:19;2.20;;;2.20;;
46282;SDS011;32017;43.700;11.820;2022-11-20T14:16:41;2.40;;;2.40;;
46282;SDS011;32017;43.700;11.820;2022-11-20T14:21:44;1.67;;;1.60;;
46282;SDS011;32017;43.700;11.820;2022-11-20T14:24:05;1.70;;;1.60;;
46282;SDS011;32017;43.700;11.820;2022-11-20T14:26:30;1.63;;;1.63;;
46282;SDS011;32017;43.700;11.820;2022-11-20T14:28:50;1.90;;;1.90;;
46282;SDS011;32017;43.700;11.820;2022-11-20T14:31:16;1.73;;;1.70;;
46282;SDS011;32017;43.700;11.820;2022-11-20T14:33:41;1.90;;;1.80;;
46282;SDS011;32017;43.700;11.820;2022-11-20T14:36:01;2.33;;;2.33;;
46282;SDS011;32017;43.700;11.820;2022-11-20T14:38:25;2.97;;;2.88;;
46282;SDS011;32017;43.700;11.820;2022-11-20T14:40:47;3.30;;;3.20;;
46282;SDS011;32017;43.700;11.820;2022-11-20T14:45:39;1.77;;;1.67;;
46282;SDS011;32017;43.700;11.820;2022-11-20T14:47:59;2.35;;;2.35;;
46282;SDS011;32017;43.700;11.820;2022-11-20T14:50:23;2.17;;;2.08;;
46282;SDS011;32017;43.700;11.820;2022-11-20T14:52:58;2.33;;;2.22;;
46282;SDS011;32017;43.700;11.820;2022-11-20T14:55:34;2.42;;;2.33;;
46282;SDS011;32017;43.700;11.820;2022-11-20T14:57:58;2.00;;;2.00;;
46282;SDS011;32017;43.700;11.820;2022-11-20T15:00:38;2.58;;;2.35;;
46282;SDS011;32017;43.700;11.820;2022-11-20T15:02:58;2.05;;;2.05;;
46282;SDS011;32017;43.700;11.820;2022-11-20T15:05:20;2.35;;;2.35;;
46282;SDS011;32017;43.700;11.820;2022-11-20T15:07:46;3.03;;;2.92;;
46282;SDS011;32017;43.700;11.820;2022-11-20T15:10:09;3.83;;;3.72;;
46282;SDS011;32017;43.700;11.820;2022-11-20T15:12:31;5.22;;;5.07;;
46282;SDS011;32017;43.700;11.820;2022-11-20T15:14:53;4.05;;;3.95;;
46282;SDS011;32017;43.700;11.820;2022-11-20T15:17:14;3.60;;;3.50;;
46282;SDS011;32017;43.700;11.820;2022-11-20T15:19:34;3.63;;;3.53;;
46282;SDS011;32017;43.700;11.820;2022-11-20T15:21:54;2.97;;;2.97;;
46282;SDS011;32017;43.700;11.820;2022-11-20T15:24:15;4.40;;;4.20;;
46282;SDS011;32017;43.700;11.820;2022-11-20T15:26:35;5.53;;;5.28;;
46282;SDS011;32017;43.700;11.820;2022-11-20T15:28:58;7.00;;;6.35;;
46282;SDS011;32017;43.700;11.820;2022-11-20T15:31:19;6.75;;;6.47;;
46282;SDS011;32017;43.700;11.820;2022-11-20T15:33:41;8.43;;;7.22;;
46282;SDS011;32017;43.700;11.820;2022-11-20T15:36:01;5.35;;;5.03;;
46282;SDS011;32017;43.700;11.820;2022-11-20T15:38:22;7.00;;;6.60;;
46282;SDS011;32017;43.700;11.820;2022-11-20T15:40:42;8.77;;;8.38;;
46282;SDS011;32017;43.700;11.820;2022-11-20T15:43:02;5.45;;;5.25;;
46282;SDS011;32017;43.700;11.820;2022-11-20T15:45:39;6.18;;;5.82;;
46282;SDS011;32017;43.700;11.820;2022-11-20T15:48:01;8.10;;;7.47;;
46282;SDS011;32017;43.700;11.820;2022-11-20T15:50:21;6.40;;;6.10;;